createdAt,value
2017-10-30T00:01:26.489Z,40.87
2017-10-30T00:03:53.090Z,18.63
2017-10-30T00:06:19.721Z,17.93
2017-10-30T00:08:46.352Z,32.80
2017-10-30T00:11:12.986Z,30.17
2017-10-30T00:13:39.594Z,30.23
2017-10-30T00:16:06.228Z,27.13
2017-10-30T00:18:32.842Z,29.60
2017-10-30T00:20:59.447Z,23.77
2017-10-30T00:23:26.080Z,33.47
2017-10-30T00:25:52.697Z,39.60
2017-10-30T00:28:19.333Z,26.03
2017-10-30T00:30:45.953Z,27.70
2017-10-30T00:33:12.582Z,24.30
2017-10-30T00:35:39.208Z,38.63
2017-10-30T00:38:05.854Z,41.60
2017-10-30T00:40:32.473Z,18.07
2017-10-30T00:42:59.083Z,32.70
2017-10-30T00:45:25.735Z,37.40
2017-10-30T00:47:52.342Z,32.33
2017-10-30T00:50:19.017Z,28.20
2017-10-30T00:52:45.625Z,42.20
2017-10-30T00:55:12.266Z,31.27
2017-10-30T00:57:38.881Z,38.73
2017-10-30T01:00:05.512Z,44.47
2017-10-30T01:02:32.130Z,29.03
2017-10-30T01:04:58.773Z,31.07
2017-10-30T01:07:25.428Z,21.53
2017-10-30T01:09:52.033Z,32.43
2017-10-30T01:12:18.659Z,21.83
2017-10-30T01:14:45.272Z,40.77
2017-10-30T01:17:11.923Z,32.60
2017-10-30T01:19:38.569Z,27.97
2017-10-30T01:22:05.198Z,38.90
2017-10-30T01:24:31.840Z,29.33
2017-10-30T01:26:58.467Z,44.30
2017-10-30T01:29:25.100Z,33.13
2017-10-30T01:31:51.743Z,29.03
2017-10-30T01:34:18.358Z,27.97
2017-10-30T01:36:44.973Z,25.60
2017-10-30T01:39:11.655Z,33.73
2017-10-30T01:41:38.272Z,31.97
2017-10-30T01:44:04.902Z,31.87
2017-10-30T01:46:31.543Z,29.30
2017-10-30T01:48:58.161Z,29.73
2017-10-30T01:51:24.835Z,50.57
2017-10-30T01:53:51.474Z,25.00
2017-10-30T01:56:18.106Z,25.13
2017-10-30T01:58:45.756Z,19.80
2017-10-30T02:01:12.390Z,23.00
2017-10-30T02:03:39.000Z,25.20
2017-10-30T02:06:05.643Z,26.33
2017-10-30T02:08:32.278Z,33.10
2017-10-30T02:10:58.911Z,33.63
2017-10-30T02:13:25.517Z,37.03
2017-10-30T02:15:52.150Z,28.77
2017-10-30T02:18:18.792Z,24.57
2017-10-30T02:20:45.394Z,32.03
2017-10-30T02:23:12.057Z,34.97
2017-10-30T02:25:38.667Z,31.40
2017-10-30T02:28:05.292Z,25.07
2017-10-30T02:30:31.934Z,32.07
2017-10-30T02:32:58.551Z,44.67
2017-10-30T02:35:25.169Z,45.17
2017-10-30T02:37:51.850Z,43.00
2017-10-30T02:40:18.478Z,33.07
2017-10-30T02:42:45.099Z,42.47
2017-10-30T02:45:11.758Z,39.17
2017-10-30T02:47:38.379Z,31.17
2017-10-30T02:50:05.038Z,32.37
2017-10-30T02:52:31.658Z,32.17
2017-10-30T02:54:58.282Z,22.17
2017-10-30T02:57:24.921Z,31.67
2017-10-30T02:59:51.550Z,27.37
2017-10-30T03:02:18.166Z,33.77
2017-10-30T03:04:44.855Z,47.17
2017-10-30T03:07:11.496Z,49.63
2017-10-30T03:09:38.109Z,25.73
2017-10-30T03:12:04.745Z,36.93
2017-10-30T03:14:31.363Z,31.40
2017-10-30T03:16:57.986Z,38.37
2017-10-30T03:19:24.618Z,34.50
2017-10-30T03:21:51.238Z,29.90
2017-10-30T03:24:17.862Z,48.90
2017-10-30T03:26:44.489Z,22.07
2017-10-30T03:29:11.109Z,30.00
2017-10-30T03:31:37.721Z,30.27
2017-10-30T03:34:04.349Z,30.37
2017-10-30T03:36:30.953Z,22.70
2017-10-30T03:38:57.586Z,29.63
2017-10-30T03:41:24.193Z,33.07
2017-10-30T03:43:50.830Z,38.70
2017-10-30T03:46:17.454Z,21.93
2017-10-30T03:48:44.062Z,17.73
2017-10-30T03:51:10.702Z,15.83
2017-10-30T03:53:37.318Z,19.80
2017-10-30T03:56:03.946Z,24.60
2017-10-30T03:58:30.552Z,18.07
2017-10-30T04:00:57.174Z,19.17
2017-10-30T04:03:23.791Z,19.13
2017-10-30T04:05:50.420Z,29.77
2017-10-30T04:08:17.031Z,34.87
2017-10-30T04:10:43.665Z,17.73
2017-10-30T04:13:10.269Z,21.40
2017-10-30T04:15:36.894Z,15.07
2017-10-30T04:18:03.521Z,15.90
2017-10-30T04:20:30.129Z,15.97
2017-10-30T04:22:56.766Z,31.43
2017-10-30T04:25:23.376Z,31.13
2017-10-30T04:27:49.998Z,17.70
2017-10-30T04:30:16.611Z,22.07
2017-10-30T04:32:43.234Z,25.90
2017-10-30T04:35:09.854Z,25.60
2017-10-30T04:37:36.490Z,15.53
2017-10-30T04:40:03.099Z,22.37
2017-10-30T04:42:29.738Z,47.73
2017-10-30T04:44:56.353Z,42.13
2017-10-30T04:47:22.991Z,45.80
2017-10-30T04:49:49.591Z,34.67
2017-10-30T04:52:16.206Z,32.67
2017-10-30T04:54:42.859Z,24.10
2017-10-30T04:57:09.481Z,29.83
2017-10-30T04:59:36.105Z,39.30
2017-10-30T05:02:02.756Z,20.77
2017-10-30T05:04:29.375Z,18.97
2017-10-30T05:06:56.033Z,18.57
2017-10-30T05:09:22.662Z,26.63
2017-10-30T05:11:49.290Z,28.40
2017-10-30T05:14:15.913Z,28.50
2017-10-30T05:16:42.908Z,27.23
2017-10-30T05:19:09.562Z,18.20
2017-10-30T05:21:36.198Z,19.63
2017-10-30T05:24:02.833Z,27.53
2017-10-30T05:26:29.458Z,35.57
2017-10-30T05:28:56.066Z,25.60
2017-10-30T05:31:22.694Z,12.13
2017-10-30T05:33:49.309Z,22.80
2017-10-30T05:36:16.013Z,31.63
2017-10-30T05:38:42.844Z,17.77
2017-10-30T05:41:09.491Z,13.63
2017-10-30T05:43:36.723Z,24.30
2017-10-30T05:46:03.390Z,12.43
2017-10-30T05:48:30.014Z,20.27
2017-10-30T05:50:56.628Z,15.83
2017-10-30T05:53:23.400Z,16.30
2017-10-30T05:55:50.005Z,17.30
2017-10-30T05:58:16.630Z,17.70
2017-10-30T06:00:43.241Z,20.23
2017-10-30T06:03:09.865Z,22.60
2017-10-30T06:05:36.486Z,33.70
2017-10-30T06:08:03.098Z,26.47
2017-10-30T06:10:29.720Z,33.80
2017-10-30T06:12:56.354Z,13.33
2017-10-30T06:15:22.974Z,35.37
2017-10-30T06:17:49.578Z,15.20
2017-10-30T06:20:16.202Z,31.97
2017-10-30T06:22:42.827Z,24.73
2017-10-30T06:25:09.509Z,16.87
2017-10-30T06:27:41.454Z,16.57
2017-10-30T06:30:08.085Z,15.20
2017-10-30T06:32:34.685Z,20.53
2017-10-30T06:35:01.352Z,15.80
2017-10-30T06:37:27.958Z,24.70
2017-10-30T06:39:54.568Z,28.40
2017-10-30T06:42:21.195Z,30.20
2017-10-30T06:44:47.798Z,31.03
2017-10-30T06:47:14.417Z,18.00
2017-10-30T06:49:41.049Z,10.90
2017-10-30T06:52:07.662Z,20.93
2017-10-30T06:54:34.298Z,23.57
2017-10-30T06:57:00.943Z,26.73
2017-10-30T06:59:27.562Z,33.57
2017-10-30T07:01:54.196Z,20.27
2017-10-30T07:04:20.823Z,16.37
2017-10-30T07:06:47.474Z,13.93
2017-10-30T07:09:14.087Z,12.53
2017-10-30T07:11:40.738Z,24.97
2017-10-30T07:14:07.364Z,19.50
2017-10-30T07:16:33.983Z,15.83
2017-10-30T07:19:00.622Z,19.40
2017-10-30T07:21:27.244Z,20.67
2017-10-30T07:23:53.876Z,24.70
2017-10-30T07:26:20.484Z,17.60
2017-10-30T07:28:47.102Z,16.00
2017-10-30T07:31:13.713Z,20.10
2017-10-30T07:33:40.342Z,21.33
2017-10-30T07:36:06.952Z,20.63
2017-10-30T07:38:33.602Z,22.83
2017-10-30T07:41:00.227Z,21.87
2017-10-30T07:43:26.852Z,13.80
2017-10-30T07:45:53.491Z,26.07
2017-10-30T07:48:20.127Z,27.00
2017-10-30T07:50:46.755Z,14.20
2017-10-30T07:53:13.376Z,22.20
2017-10-30T07:55:39.979Z,18.43
2017-10-30T07:58:06.602Z,26.97
2017-10-30T08:00:33.253Z,19.57
2017-10-30T08:02:59.870Z,20.13
2017-10-30T08:05:26.499Z,19.10
2017-10-30T08:07:53.119Z,23.63
2017-10-30T08:10:19.722Z,13.30
2017-10-30T08:12:46.376Z,19.00
2017-10-30T08:15:12.973Z,9.67
2017-10-30T08:17:39.610Z,5.90
2017-10-30T08:20:06.246Z,14.07
2017-10-30T08:22:32.886Z,15.00
2017-10-30T08:24:59.514Z,11.60
2017-10-30T08:27:26.129Z,9.80
2017-10-30T08:29:52.757Z,16.97
2017-10-30T08:32:19.384Z,12.03
2017-10-30T08:34:46.002Z,12.57
2017-10-30T08:37:12.611Z,14.93
2017-10-30T08:39:39.258Z,10.00
2017-10-30T08:42:05.875Z,11.27
2017-10-30T08:44:32.510Z,15.10
2017-10-30T08:46:59.107Z,7.57
2017-10-30T08:49:25.722Z,8.00
2017-10-30T08:51:52.347Z,17.90
2017-10-30T08:54:18.984Z,6.30
2017-10-30T08:56:45.602Z,10.77
2017-10-30T08:59:12.199Z,8.00
2017-10-30T09:01:38.850Z,6.20
2017-10-30T09:04:05.447Z,5.83
2017-10-30T09:06:32.075Z,13.23
2017-10-30T09:08:58.687Z,10.30
2017-10-30T09:11:25.341Z,9.63
2017-10-30T09:13:51.949Z,10.30
2017-10-30T09:16:18.565Z,7.50
2017-10-30T09:18:45.193Z,13.80
2017-10-30T09:21:11.824Z,7.53
2017-10-30T09:23:38.435Z,7.10
2017-10-30T09:26:05.064Z,10.80
2017-10-30T09:28:31.687Z,11.03
2017-10-30T09:30:58.298Z,3.93
2017-10-30T09:33:24.960Z,11.13
2017-10-30T09:35:51.581Z,11.83
2017-10-30T09:38:18.209Z,11.23
2017-10-30T09:40:44.865Z,10.50
2017-10-30T09:43:11.487Z,10.03
2017-10-30T09:45:38.093Z,13.77
2017-10-30T09:48:04.753Z,11.20
2017-10-30T09:50:31.366Z,11.00
2017-10-30T09:52:58.000Z,12.20
2017-10-30T09:55:24.637Z,11.87
2017-10-30T09:57:51.240Z,9.10
2017-10-30T10:00:17.865Z,5.53
2017-10-30T10:02:44.539Z,9.43
2017-10-30T10:05:11.157Z,8.90
2017-10-30T10:07:37.760Z,10.97
2017-10-30T10:10:04.432Z,7.43
2017-10-30T10:12:31.178Z,7.13
2017-10-30T10:14:57.790Z,11.93
2017-10-30T10:17:24.418Z,11.33
2017-10-30T10:19:51.034Z,13.83
2017-10-30T10:22:17.669Z,6.97
2017-10-30T10:24:44.279Z,6.77
2017-10-30T10:27:10.952Z,15.43
2017-10-30T10:29:37.561Z,17.77
2017-10-30T10:32:04.200Z,7.83
2017-10-30T10:34:30.807Z,3.90
2017-10-30T10:36:57.412Z,5.67
2017-10-30T10:39:24.081Z,4.80
2017-10-30T10:41:50.712Z,11.57
2017-10-30T10:44:17.348Z,9.73
2017-10-30T10:46:43.954Z,4.40
2017-10-30T10:49:10.590Z,3.00
2017-10-30T10:51:37.205Z,11.60
2017-10-30T10:54:03.880Z,17.27
2017-10-30T10:56:30.492Z,13.80
2017-10-30T10:58:57.112Z,9.80
2017-10-30T11:01:23.741Z,9.30
2017-10-30T11:03:50.410Z,6.33
2017-10-30T11:06:17.047Z,6.50
2017-10-30T11:08:43.663Z,8.10
2017-10-30T11:11:10.299Z,9.63
2017-10-30T11:13:36.977Z,13.40
2017-10-30T11:16:03.653Z,9.47
2017-10-30T11:18:30.384Z,9.30
2017-10-30T11:20:56.978Z,8.67
2017-10-30T11:23:23.599Z,16.97
2017-10-30T11:25:50.230Z,6.53
2017-10-30T11:28:16.842Z,7.70
2017-10-30T11:30:43.464Z,6.00
2017-10-30T11:33:10.222Z,10.17
2017-10-30T11:35:36.859Z,9.77
2017-10-30T11:38:03.475Z,6.50
2017-10-30T11:40:30.098Z,6.23
2017-10-30T11:42:56.710Z,8.40
2017-10-30T11:45:23.339Z,12.40
2017-10-30T11:47:49.968Z,8.00
2017-10-30T11:50:16.569Z,14.50
2017-10-30T11:52:43.238Z,14.97
2017-10-30T11:55:09.834Z,5.27
2017-10-30T11:57:36.456Z,10.13
2017-10-30T12:00:03.072Z,6.40
2017-10-30T12:02:29.692Z,10.13
2017-10-30T12:04:56.319Z,6.30
2017-10-30T12:07:22.928Z,8.63
2017-10-30T12:09:49.590Z,7.60
2017-10-30T12:12:16.200Z,10.30
2017-10-30T12:14:42.819Z,16.60
2017-10-30T12:17:09.421Z,9.40
2017-10-30T12:19:36.070Z,14.60
2017-10-30T12:22:02.731Z,12.03
2017-10-30T12:24:29.356Z,7.30
2017-10-30T12:26:56.003Z,13.20
2017-10-30T12:29:22.633Z,9.10
2017-10-30T12:31:49.261Z,6.80
2017-10-30T12:34:15.925Z,18.77
2017-10-30T12:36:42.530Z,13.03
2017-10-30T12:39:09.142Z,11.00
2017-10-30T12:41:35.759Z,7.87
2017-10-30T12:44:02.366Z,5.10
2017-10-30T12:46:29.001Z,10.40
2017-10-30T12:48:55.608Z,9.20
2017-10-30T12:51:22.235Z,20.77
2017-10-30T12:53:49.857Z,2.50
2017-10-30T12:56:16.513Z,9.30
2017-10-30T12:58:43.115Z,10.80
2017-10-30T13:01:09.744Z,5.80
2017-10-30T13:03:36.359Z,16.50
2017-10-30T13:06:02.998Z,10.13
2017-10-30T13:08:29.678Z,8.07
2017-10-30T13:10:56.290Z,12.83
2017-10-30T13:13:23.092Z,7.73
2017-10-30T13:15:49.755Z,3.10
2017-10-30T13:18:16.558Z,6.93
2017-10-30T13:20:43.160Z,7.93
2017-10-30T13:23:09.799Z,11.70
2017-10-30T13:25:36.423Z,14.37
2017-10-30T13:28:03.050Z,5.00
2017-10-30T13:30:29.770Z,6.20
2017-10-30T13:32:56.385Z,5.30
2017-10-30T13:35:23.054Z,5.13
2017-10-30T13:37:49.694Z,6.00
2017-10-30T13:40:16.310Z,6.20
2017-10-30T13:42:42.948Z,6.40
2017-10-30T13:45:09.581Z,3.67
2017-10-30T13:47:36.244Z,11.40
2017-10-30T13:50:02.879Z,13.07
2017-10-30T13:52:29.480Z,6.63
2017-10-30T13:54:56.094Z,6.17
2017-10-30T13:57:22.721Z,6.10
2017-10-30T13:59:49.328Z,4.50
2017-10-30T14:02:15.930Z,5.27
2017-10-30T14:04:42.551Z,5.13
2017-10-30T14:07:09.210Z,17.60
2017-10-30T14:09:35.815Z,9.23
2017-10-30T14:12:02.463Z,12.00
2017-10-30T14:14:29.089Z,12.23
2017-10-30T14:16:55.732Z,11.83
2017-10-30T14:19:22.349Z,25.37
2017-10-30T14:21:48.963Z,7.60
2017-10-30T14:24:15.603Z,28.20
2017-10-30T14:26:42.241Z,17.27
2017-10-30T14:29:08.865Z,5.00
2017-10-30T14:31:35.466Z,10.23
2017-10-30T14:34:02.225Z,6.77
2017-10-30T14:36:28.834Z,4.40
2017-10-30T14:38:55.446Z,12.07
2017-10-30T14:41:22.102Z,7.77
2017-10-30T14:43:48.698Z,9.83
2017-10-30T14:46:15.386Z,9.43
2017-10-30T14:48:42.046Z,5.27
2017-10-30T14:51:08.651Z,8.77
2017-10-30T14:53:35.265Z,6.03
2017-10-30T14:56:01.897Z,5.03
2017-10-30T14:58:28.519Z,3.80
2017-10-30T15:00:55.237Z,16.03
2017-10-30T15:03:21.843Z,9.73
2017-10-30T15:05:48.479Z,4.27
2017-10-30T15:08:15.088Z,6.40
2017-10-30T15:10:41.747Z,6.77
2017-10-30T15:13:08.369Z,13.67
2017-10-30T15:15:35.070Z,9.27
2017-10-30T15:18:01.679Z,6.07
2017-10-30T15:20:28.298Z,3.33
2017-10-30T15:22:54.974Z,5.53
2017-10-30T15:25:21.654Z,8.63
2017-10-30T15:27:48.291Z,13.90
2017-10-30T15:30:15.263Z,9.00
2017-10-30T15:32:42.034Z,8.20
2017-10-30T15:35:08.641Z,9.50
2017-10-30T15:37:35.259Z,7.77
2017-10-30T15:40:01.862Z,15.07
2017-10-30T15:42:28.499Z,16.80
2017-10-30T15:44:55.137Z,12.40
2017-10-30T15:47:21.776Z,10.17
2017-10-30T15:49:48.454Z,10.67
2017-10-30T15:52:15.080Z,10.47
2017-10-30T15:54:41.815Z,19.20
2017-10-30T15:57:08.413Z,6.30
2017-10-30T15:59:35.047Z,7.40
2017-10-30T16:02:01.691Z,8.67
2017-10-30T16:04:28.307Z,11.60
2017-10-30T16:06:54.970Z,14.53
2017-10-30T16:09:21.624Z,12.43
2017-10-30T16:11:48.251Z,7.13
2017-10-30T16:14:14.893Z,6.60
2017-10-30T16:16:41.542Z,15.70
2017-10-30T16:19:08.146Z,5.43
2017-10-30T16:21:34.780Z,8.43
2017-10-30T16:24:01.390Z,13.07
2017-10-30T16:26:28.015Z,21.20
2017-10-30T16:28:54.657Z,11.80
2017-10-30T16:31:21.298Z,15.00
2017-10-30T16:33:49.522Z,11.73
2017-10-30T16:36:16.139Z,16.10
2017-10-30T16:38:42.769Z,23.30
2017-10-30T16:41:09.441Z,14.90
2017-10-30T16:43:36.066Z,11.47
2017-10-30T16:46:02.758Z,18.37
2017-10-30T16:48:29.373Z,18.17
2017-10-30T16:50:56.079Z,23.90
2017-10-30T16:53:22.682Z,22.17
2017-10-30T16:55:49.382Z,24.63
2017-10-30T16:58:16.006Z,16.73
2017-10-30T17:00:42.739Z,15.70
2017-10-30T17:03:09.451Z,31.30
2017-10-30T17:05:36.078Z,46.17
2017-10-30T17:08:02.735Z,48.67
2017-10-30T17:10:29.381Z,29.20
2017-10-30T17:12:56.013Z,23.60
2017-10-30T17:15:22.729Z,54.37
2017-10-30T17:17:49.376Z,57.90
2017-10-30T17:20:16.031Z,59.13
2017-10-30T17:22:42.659Z,72.17
2017-10-30T17:25:09.272Z,25.30
2017-10-30T17:27:35.920Z,29.83
2017-10-30T17:30:02.543Z,24.53
2017-10-30T17:32:29.162Z,25.50
2017-10-30T17:34:55.785Z,17.70
2017-10-30T17:37:22.446Z,29.40
2017-10-30T17:39:49.066Z,27.93
2017-10-30T17:42:15.712Z,41.03
2017-10-30T17:44:42.366Z,19.30
2017-10-30T17:47:08.985Z,29.00
2017-10-30T17:49:35.620Z,22.57
2017-10-30T17:52:02.297Z,21.03
2017-10-30T17:54:28.950Z,27.77
2017-10-30T17:56:55.560Z,27.47
2017-10-30T17:59:22.202Z,25.80
2017-10-30T18:01:48.809Z,27.73
2017-10-30T18:04:15.457Z,25.93
2017-10-30T18:06:42.065Z,21.83
2017-10-30T18:09:08.696Z,24.60
2017-10-30T18:11:35.310Z,27.67
2017-10-30T18:14:01.914Z,24.43
2017-10-30T18:16:28.570Z,33.90
2017-10-30T18:18:55.210Z,37.57
2017-10-30T18:21:21.851Z,32.00
2017-10-30T18:23:48.473Z,40.13
2017-10-30T18:26:15.098Z,42.43
2017-10-30T18:28:41.770Z,42.33
2017-10-30T18:31:08.404Z,45.60
2017-10-30T18:33:35.025Z,53.77
2017-10-30T18:36:01.677Z,56.00
2017-10-30T18:38:28.286Z,62.13
2017-10-30T18:40:54.945Z,61.07
2017-10-30T18:43:21.552Z,70.57
2017-10-30T18:45:48.193Z,49.80
2017-10-30T18:48:14.820Z,51.70
2017-10-30T18:50:41.446Z,55.57
2017-10-30T18:53:08.087Z,58.27
2017-10-30T18:55:34.735Z,48.37
2017-10-30T18:58:01.387Z,29.67
2017-10-30T19:00:28.032Z,31.97
2017-10-30T19:02:54.657Z,33.37
2017-10-30T19:05:21.299Z,43.90
2017-10-30T19:07:47.951Z,42.90
2017-10-30T19:10:14.579Z,41.30
2017-10-30T19:12:41.220Z,40.13
2017-10-30T19:15:07.847Z,24.87
2017-10-30T19:17:34.479Z,35.67
2017-10-30T19:20:01.144Z,31.23
2017-10-30T19:22:27.752Z,43.20
2017-10-30T19:24:54.420Z,17.33
2017-10-30T19:27:21.031Z,24.97
2017-10-30T19:29:47.657Z,24.90
2017-10-30T19:32:14.316Z,21.20
2017-10-30T19:34:40.954Z,32.57
2017-10-30T19:37:07.580Z,26.17
2017-10-30T19:39:39.840Z,27.47
2017-10-30T19:42:06.460Z,31.73
2017-10-30T19:44:33.207Z,34.63
2017-10-30T19:46:59.854Z,29.10
2017-10-30T19:49:26.455Z,47.50
2017-10-30T19:51:53.091Z,33.67
2017-10-30T19:54:19.726Z,32.03
2017-10-30T19:56:46.411Z,54.10
2017-10-30T19:59:13.040Z,42.47
2017-10-30T20:01:39.688Z,34.33
2017-10-30T20:04:06.319Z,43.50
2017-10-30T20:06:38.746Z,28.47
2017-10-30T20:09:11.018Z,32.13
2017-10-30T20:11:43.392Z,22.47
2017-10-30T20:14:10.066Z,24.83
2017-10-30T20:16:36.722Z,29.50
2017-10-30T20:19:03.357Z,24.80
2017-10-30T20:21:29.971Z,38.00
2017-10-30T20:23:56.610Z,30.60
2017-10-30T20:26:23.691Z,23.40
2017-10-30T20:28:50.400Z,27.07
2017-10-30T20:31:17.169Z,21.53
2017-10-30T20:33:47.770Z,28.53
2017-10-30T20:36:14.595Z,26.40
2017-10-30T20:38:41.202Z,26.77
2017-10-30T20:41:07.871Z,20.17
2017-10-30T20:43:34.597Z,22.63
2017-10-30T20:46:01.251Z,13.57
2017-10-30T20:48:27.858Z,24.03
2017-10-30T20:50:54.527Z,25.00
2017-10-30T20:53:21.134Z,24.37
2017-10-30T20:55:47.772Z,30.43
2017-10-30T20:58:14.413Z,20.70
2017-10-30T21:00:41.030Z,16.13
2017-10-30T21:03:07.686Z,30.00
2017-10-30T21:05:34.322Z,22.30
2017-10-30T21:08:00.959Z,28.63
2017-10-30T21:10:27.602Z,25.10
2017-10-30T21:12:54.230Z,27.30
2017-10-30T21:15:20.885Z,28.80
2017-10-30T21:17:47.515Z,34.37
2017-10-30T21:20:14.174Z,16.73
2017-10-30T21:22:40.810Z,27.27
2017-10-30T21:25:07.470Z,23.07
2017-10-30T21:27:34.145Z,27.77
2017-10-30T21:30:00.757Z,25.80
2017-10-30T21:32:27.394Z,23.70
2017-10-30T21:34:54.010Z,15.83
2017-10-30T21:37:20.648Z,26.60
2017-10-30T21:39:47.266Z,22.53
2017-10-30T21:42:13.883Z,18.07
2017-10-30T21:44:40.556Z,26.70
2017-10-30T21:47:07.172Z,32.77
2017-10-30T21:49:33.806Z,17.27
2017-10-30T21:52:00.454Z,30.33
2017-10-30T21:54:27.100Z,15.50
2017-10-30T21:56:53.732Z,22.43
2017-10-30T21:59:20.339Z,20.70
2017-10-30T22:01:46.976Z,30.37
2017-10-30T22:04:13.609Z,23.30
2017-10-30T22:06:40.250Z,19.73
2017-10-30T22:09:06.878Z,32.50
2017-10-30T22:11:33.490Z,29.03
2017-10-30T22:14:00.190Z,23.27
2017-10-30T22:16:26.836Z,19.60
2017-10-30T22:18:53.469Z,25.17
2017-10-30T22:21:20.090Z,18.83
2017-10-30T22:23:46.740Z,19.70
2017-10-30T22:26:13.355Z,17.00
2017-10-30T22:28:40.024Z,21.70
2017-10-30T22:31:06.634Z,28.83
2017-10-30T22:33:33.247Z,20.20
2017-10-30T22:35:59.923Z,20.60
2017-10-30T22:38:26.549Z,18.37
2017-10-30T22:40:53.182Z,35.20
2017-10-30T22:43:19.895Z,21.97
2017-10-30T22:45:46.506Z,27.43
2017-10-30T22:48:13.134Z,29.03
2017-10-30T22:50:39.758Z,25.93
2017-10-30T22:53:06.377Z,23.47
2017-10-30T22:55:33.037Z,32.37
2017-10-30T22:57:59.653Z,23.33
2017-10-30T23:00:26.287Z,26.37
2017-10-30T23:02:52.932Z,19.20
2017-10-30T23:05:19.547Z,23.20
2017-10-30T23:07:46.183Z,23.97
2017-10-30T23:10:12.811Z,23.87
2017-10-30T23:12:39.454Z,22.50
2017-10-30T23:15:06.091Z,16.47
2017-10-30T23:17:32.710Z,23.00
2017-10-30T23:19:59.337Z,16.80
2017-10-30T23:22:26.091Z,14.67
2017-10-30T23:24:52.710Z,20.13
2017-10-30T23:27:19.375Z,16.90
2017-10-30T23:29:46.024Z,19.20
2017-10-30T23:32:12.650Z,27.27
2017-10-30T23:34:39.286Z,20.80
2017-10-30T23:37:05.937Z,22.83
2017-10-30T23:39:32.571Z,19.50
2017-10-30T23:41:59.195Z,21.23
2017-10-30T23:44:25.832Z,25.97
2017-10-30T23:46:52.466Z,17.03
2017-10-30T23:49:19.083Z,23.03
2017-10-30T23:51:45.783Z,16.37
2017-10-30T23:54:12.420Z,24.83
2017-10-30T23:56:39.040Z,21.40
2017-10-30T23:59:05.699Z,24.13
